Buoy 52514

sailwx.info

Track history (hours):
 
Tides and Currents Weather Stations Pressure Air Temp Water Temp Dewpoint Dewpoint Depression Visibility Wind Speed Wind Dir Waves Ship Positions

Drifting buoy 52514

Last reported at 2014-Jul-31 21:00 UTC. Time now 2014-Jul-31 23:39 UTC.
Position N 26°22' E 125°59'.

Water temperature 29.4 ° C

Date/timePositionNaut miles runAvg speedWind from/ knotsBaromVisibWave heightAir tempDewpointWater temp
2014-Jul-31 21:00N 26°22' E 125°59'2 1.6 29.4
2014-Jul-31 20:00N 26°21' E 125°57'3 2.8 29.6
2014-Jul-31 19:00N 26°19' E 125°55'3 3.1 29.6
2014-Jul-31 18:00N 26°16' E 125°53'0 0.1 29.7
2014-Jul-31 17:00N 26°17' E 125°53'10 2.6 29.7
2014-Jul-31 13:00N 26°09' E 125°45'6 5.7 29.6
2014-Jul-31 12:00N 26°06' E 125°40'3 1.1 29.6
2014-Jul-31 09:00N 26°03' E 125°38'7 3.7 29.7
2014-Jul-31 07:00N 25°57' E 125°33'1 0.6 29.7
2014-Jul-31 06:00N 25°57' E 125°34'5 4.5 29.7
2014-Jul-31 05:00N 25°55' E 125°29'6 6.4 29.6
2014-Jul-31 04:00N 25°51' E 125°23'2 0.6 29.6
2014-Jul-31 01:00N 25°50' E 125°22'7 2.4 29.4
2014-Jul-30 22:00N 25°47' E 125°14'3 2.7 29.1
2014-Jul-30 21:00N 25°45' E 125°13'2 1.8 28.9
2014-Jul-30 20:00N 25°44' E 125°11'5 1.6 28.8
2014-Jul-30 17:00N 25°41' E 125°07'9 2.9 28.9
2014-Jul-30 14:00N 25°36' E 124°59'1 1.4 28.8
2014-Jul-30 13:00N 25°36' E 124°57'1 1.4 28.8
2014-Jul-30 12:00N 25°35' E 124°56'4 2.2 29.0
2014-Jul-30 10:00N 25°32' E 124°52'3 2.8 29.3
2014-Jul-30 09:00N 25°31' E 124°49'3 3.5 29.5
2014-Jul-30 08:00N 25°29' E 124°46'0 0.0 29.6
2014-Jul-30 07:00N 25°29' E 124°46'4 2.1 29.7
2014-Jul-30 05:00N 25°28' E 124°42'1 0.3 29.6
2014-Jul-30 01:00N 25°26' E 124°42'8 2.1 29.4
2014-Jul-29 21:00N 25°20' E 124°36'0 0.0 29.4
2014-Jul-29 20:00N 25°20' E 124°36'10 3.3 29.4
2014-Jul-29 17:00N 25°15' E 124°26'2 0.6 29.2
2014-Jul-29 13:00N 25°15' E 124°23'0 0.0 28.3
2014-Jul-29 12:00N 25°15' E 124°23'7 1.8 28.3
2014-Jul-29 08:00N 25°14' E 124°15'6 5.6 28.5
2014-Jul-29 07:00N 25°09' E 124°13'0 0.0 28.6
2014-Jul-29 05:00N 25°09' E 124°13'0 0.0 29.2
2014-Jul-29 04:00N 25°09' E 124°13'5 0.8 29.2
2014-Jul-28 22:00N 25°05' E 124°09'2 2.1 28.1
2014-Jul-28 21:00N 25°04' E 124°08'2 2.1 28.2
2014-Jul-28 20:00N 25°02' E 124°06'2 2.3 28.2
2014-Jul-28 19:00N 25°02' E 124°03'0 0.0 28.2
2014-Jul-28 18:00N 25°02' E 124°03'5 0.9 28.2
2014-Jul-28 13:00N 25°01' E 123°58'0 0.0 28.3
2014-Jul-28 12:00N 25°01' E 123°58'1 1.5 28.4
2014-Jul-28 11:00N 25°01' E 123°57'2 1.0 28.5
2014-Jul-28 09:00N 24°59' E 123°56'2 2.1 28.7
2014-Jul-28 08:00N 24°57' E 123°55'3 1.5 29.0
2014-Jul-28 06:00N 24°55' E 123°53'1 0.8 28.7
2014-Jul-28 05:00N 24°55' E 123°54'5 5.1 28.7
2014-Jul-28 04:00N 24°52' E 123°49'1 0.4 28.6
2014-Jul-28 02:00N 24°51' E 123°49'1 1.3 28.3
2014-Jul-28 01:00N 24°51' E 123°48'4 1.5 28.2
2014-Jul-27 22:00N 24°48' E 123°44'1 1.2 27.6
2014-Jul-27 21:00N 24°47' E 123°43'1 1.2 27.7
2014-Jul-27 20:00N 24°47' E 123°42'1 1.2 27.9
2014-Jul-27 19:00N 24°46' E 123°41'1 1.4 27.9
2014-Jul-27 18:00N 24°45' E 123°40'6 2.9 27.7
2014-Jul-27 16:00N 24°39' E 123°39'3 0.6 27.6
2014-Jul-27 12:00N 24°36' E 123°38'2 2.3 27.7
2014-Jul-27 11:00N 24°34' E 123°39'1 0.3 28.1
2014-Jul-27 09:00N 24°34' E 123°38'1 0.5 28.3
2014-Jul-27 08:00N 24°33' E 123°38'0 0.3 28.3
2014-Jul-27 07:00N 24°33' E 123°38'1 0.7 28.4
2014-Jul-27 06:00N 24°33' E 123°39'4 3.8 28.4
2014-Jul-27 05:00N 24°29' E 123°39'0 0.0 28.2
2014-Jul-27 04:00N 24°29' E 123°39'0 0.0 28.1
2014-Jul-27 03:00N 24°29' E 123°39'7 2.4 28.0
2014-Jul-27 00:00N 24°22' E 123°36'0 0.0 27.4
2014-Jul-26 22:00N 24°22' E 123°36'1 1.1 28.4
2014-Jul-26 21:00N 24°21' E 123°36'1 0.6 28.1
2014-Jul-26 20:00N 24°21' E 123°37'2 2.2 28.1
2014-Jul-26 19:00N 24°19' E 123°35'1 1.2 27.0
2014-Jul-26 18:00N 24°18' E 123°34'1 0.7 27.1
2014-Jul-26 16:00N 24°17' E 123°33'3 1.0 27.1
2014-Jul-26 13:00N 24°15' E 123°31'5 4.6 27.2
2014-Jul-26 12:00N 24°10' E 123°32'5 1.2 27.5
2014-Jul-26 08:00N 24°06' E 123°34'0 0.0 29.9
2014-Jul-26 07:00N 24°06' E 123°34'1 0.5 31.0
2014-Jul-26 06:00N 24°05' E 123°35'2 0.8 31.3
2014-Jul-26 04:00N 24°04' E 123°36'0 0.5 29.2
2014-Jul-26 03:00N 24°03' E 123°36'0 0.2 28.6
2014-Jul-26 01:00N 24°03' E 123°36'2 1.7 27.6
2014-Jul-26 00:00N 24°02' E 123°35'0 0.0 27.4
2014-Jul-25 22:00N 24°02' E 123°35'1 0.7 27.3
2014-Jul-25 21:00N 24°01' E 123°34'2 1.1 27.3
2014-Jul-25 19:00N 23°60' E 123°32'4 3.8 27.3
2014-Jul-25 18:00N 23°57' E 123°30'1 0.1 27.3
2014-Jul-25 13:00N 23°56' E 123°29'0 0.0 27.4
2014-Jul-25 12:00N 23°56' E 123°29'5 1.2 27.4
2014-Jul-25 08:00N 23°52' E 123°26'4 1.8 27.4
2014-Jul-25 06:00N 23°49' E 123°25'3 1.4 27.3
2014-Jul-25 04:00N 23°46' E 123°24'2 1.9 27.2
2014-Jul-25 03:00N 23°44' E 123°24'6 1.1 27.0
2014-Jul-24 21:00N 23°38' E 123°24'2 1.2 26.8
2014-Jul-24 19:00N 23°36' E 123°26'0 0.0 26.8
2014-Jul-24 18:00N 23°36' E 123°26'2 1.9 26.8
2014-Jul-24 17:00N 23°34' E 123°27'0 0.0 26.8
2014-Jul-24 16:00N 23°34' E 123°27'2 0.8 26.8
2014-Jul-24 13:00N 23°32' E 123°27'1 0.8 26.7
2014-Jul-24 12:00N 23°31' E 123°27'3 0.9 26.7
2014-Jul-24 09:00N 23°29' E 123°26'2 2.3 26.7
2014-Jul-24 08:00N 23°27' E 123°26'1 1.4 26.6
2014-Jul-24 07:00N 23°25' E 123°25'2 2.3 26.5
2014-Jul-24 06:00N 23°23' E 123°26'5 2.3 26.4
2014-Jul-24 04:00N 23°19' E 123°26'6 0.9 26.3
2014-Jul-23 21:00N 23°13' E 123°26'1 0.6 26.0
2014-Jul-23 20:00N 23°12' E 123°26'2 1.6 26.0
2014-Jul-23 19:00N 23°10' E 123°26'3 2.6 26.0
2014-Jul-23 18:00N 23°08' E 123°27'0 0.1 26.0
2014-Jul-23 17:00N 23°08' E 123°27'0 0.0 26.0
2014-Jul-23 16:00N 23°08' E 123°27'5 2.7 26.0
2014-Jul-23 14:00N 23°03' E 123°29'3 3.2 26.1
2014-Jul-23 13:00N 23°01' E 123°32'0 0.0 26.1
2014-Jul-23 12:00N 23°01' E 123°32'5 1.5 26.1
2014-Jul-23 09:00N 22°59' E 123°36'4 2.1 26.1
2014-Jul-23 07:00N 22°59' E 123°41'0 0.0 26.2
2014-Jul-23 06:00N 22°59' E 123°41'4 1.1 26.1
2014-Jul-23 02:00N 22°60' E 123°45'0 0.1 26.1
2014-Jul-22 22:00N 22°60' E 123°46'0 0.2 26.1
2014-Jul-22 21:00N 23°00' E 123°46'1 0.5 26.1
2014-Jul-22 20:00N 22°60' E 123°46'2 1.8 26.1
2014-Jul-22 19:00N 22°58' E 123°46'0 0.0 26.1
2014-Jul-22 17:00N 22°58' E 123°46'7 1.6 26.1
2014-Jul-22 13:00N 22°51' E 123°46'8 1.9 26.1
2014-Jul-22 09:00N 22°45' E 123°50'1 1.0 26.3
2014-Jul-22 08:00N 22°45' E 123°50'7 6.6 26.4
2014-Jul-22 07:00N 22°41' E 123°56'0 0.0 26.5
2014-Jul-22 05:00N 22°41' E 123°56'14 1.8 26.8
2014-Jul-21 21:00N 22°37' E 124°10'   27.7
Track history (hours):
 
Tides and Currents Weather Stations Pressure Air Temp Water Temp Dewpoint Dewpoint Depression Visibility Wind Speed Wind Dir Waves Ship Positions

Drifting buoy 52514

Last reported at 2014-Jul-31 21:00 UTC. Time now 2014-Jul-31 23:39 UTC.
Position N 26°22' E 125°59'.

Water temperature 29.4 ° C

Date/timePositionNaut miles runAvg speedWind from/ knotsBaromVisibWave heightAir tempDewpointWater temp
2014-Jul-31 21:00N 26°22' E 125°59'2 1.6 29.4
2014-Jul-31 20:00N 26°21' E 125°57'3 2.8 29.6
2014-Jul-31 19:00N 26°19' E 125°55'3 3.1 29.6
2014-Jul-31 18:00N 26°16' E 125°53'0 0.1 29.7
2014-Jul-31 17:00N 26°17' E 125°53'10 2.6 29.7
2014-Jul-31 13:00N 26°09' E 125°45'6 5.7 29.6
2014-Jul-31 12:00N 26°06' E 125°40'3 1.1 29.6
2014-Jul-31 09:00N 26°03' E 125°38'7 3.7 29.7
2014-Jul-31 07:00N 25°57' E 125°33'1 0.6 29.7
2014-Jul-31 06:00N 25°57' E 125°34'5 4.5 29.7
2014-Jul-31 05:00N 25°55' E 125°29'6 6.4 29.6
2014-Jul-31 04:00N 25°51' E 125°23'2 0.6 29.6
2014-Jul-31 01:00N 25°50' E 125°22'7 2.4 29.4
2014-Jul-30 22:00N 25°47' E 125°14'3 2.7 29.1
2014-Jul-30 21:00N 25°45' E 125°13'2 1.8 28.9
2014-Jul-30 20:00N 25°44' E 125°11'5 1.6 28.8
2014-Jul-30 17:00N 25°41' E 125°07'9 2.9 28.9
2014-Jul-30 14:00N 25°36' E 124°59'1 1.4 28.8
2014-Jul-30 13:00N 25°36' E 124°57'1 1.4 28.8
2014-Jul-30 12:00N 25°35' E 124°56'4 2.2 29.0
2014-Jul-30 10:00N 25°32' E 124°52'3 2.8 29.3
2014-Jul-30 09:00N 25°31' E 124°49'3 3.5 29.5
2014-Jul-30 08:00N 25°29' E 124°46'0 0.0 29.6
2014-Jul-30 07:00N 25°29' E 124°46'4 2.1 29.7
2014-Jul-30 05:00N 25°28' E 124°42'1 0.3 29.6
2014-Jul-30 01:00N 25°26' E 124°42'8 2.1 29.4
2014-Jul-29 21:00N 25°20' E 124°36'0 0.0 29.4
2014-Jul-29 20:00N 25°20' E 124°36'10 3.3 29.4
2014-Jul-29 17:00N 25°15' E 124°26'2 0.6 29.2
2014-Jul-29 13:00N 25°15' E 124°23'0 0.0 28.3
2014-Jul-29 12:00N 25°15' E 124°23'7 1.8 28.3
2014-Jul-29 08:00N 25°14' E 124°15'6 5.6 28.5
2014-Jul-29 07:00N 25°09' E 124°13'0 0.0 28.6
2014-Jul-29 05:00N 25°09' E 124°13'0 0.0 29.2
2014-Jul-29 04:00N 25°09' E 124°13'5 0.8 29.2
2014-Jul-28 22:00N 25°05' E 124°09'2 2.1 28.1
2014-Jul-28 21:00N 25°04' E 124°08'2 2.1 28.2
2014-Jul-28 20:00N 25°02' E 124°06'2 2.3 28.2
2014-Jul-28 19:00N 25°02' E 124°03'0 0.0 28.2
2014-Jul-28 18:00N 25°02' E 124°03'5 0.9 28.2
2014-Jul-28 13:00N 25°01' E 123°58'0 0.0 28.3
2014-Jul-28 12:00N 25°01' E 123°58'1 1.5 28.4
2014-Jul-28 11:00N 25°01' E 123°57'2 1.0 28.5
2014-Jul-28 09:00N 24°59' E 123°56'2 2.1 28.7
2014-Jul-28 08:00N 24°57' E 123°55'3 1.5 29.0
2014-Jul-28 06:00N 24°55' E 123°53'1 0.8 28.7
2014-Jul-28 05:00N 24°55' E 123°54'5 5.1 28.7
2014-Jul-28 04:00N 24°52' E 123°49'1 0.4 28.6
2014-Jul-28 02:00N 24°51' E 123°49'1 1.3 28.3
2014-Jul-28 01:00N 24°51' E 123°48'4 1.5 28.2
2014-Jul-27 22:00N 24°48' E 123°44'1 1.2 27.6
2014-Jul-27 21:00N 24°47' E 123°43'1 1.2 27.7
2014-Jul-27 20:00N 24°47' E 123°42'1 1.2 27.9
2014-Jul-27 19:00N 24°46' E 123°41'1 1.4 27.9
2014-Jul-27 18:00N 24°45' E 123°40'6 2.9 27.7
2014-Jul-27 16:00N 24°39' E 123°39'3 0.6 27.6
2014-Jul-27 12:00N 24°36' E 123°38'2 2.3 27.7
2014-Jul-27 11:00N 24°34' E 123°39'1 0.3 28.1
2014-Jul-27 09:00N 24°34' E 123°38'1 0.5 28.3
2014-Jul-27 08:00N 24°33' E 123°38'0 0.3 28.3
2014-Jul-27 07:00N 24°33' E 123°38'1 0.7 28.4
2014-Jul-27 06:00N 24°33' E 123°39'4 3.8 28.4
2014-Jul-27 05:00N 24°29' E 123°39'0 0.0 28.2
2014-Jul-27 04:00N 24°29' E 123°39'0 0.0 28.1
2014-Jul-27 03:00N 24°29' E 123°39'7 2.4 28.0
2014-Jul-27 00:00N 24°22' E 123°36'0 0.0 27.4
2014-Jul-26 22:00N 24°22' E 123°36'1 1.1 28.4
2014-Jul-26 21:00N 24°21' E 123°36'1 0.6 28.1
2014-Jul-26 20:00N 24°21' E 123°37'2 2.2 28.1
2014-Jul-26 19:00N 24°19' E 123°35'1 1.2 27.0
2014-Jul-26 18:00N 24°18' E 123°34'1 0.7 27.1
2014-Jul-26 16:00N 24°17' E 123°33'3 1.0 27.1
2014-Jul-26 13:00N 24°15' E 123°31'5 4.6 27.2
2014-Jul-26 12:00N 24°10' E 123°32'5 1.2 27.5
2014-Jul-26 08:00N 24°06' E 123°34'0 0.0 29.9
2014-Jul-26 07:00N 24°06' E 123°34'1 0.5 31.0
2014-Jul-26 06:00N 24°05' E 123°35'2 0.8 31.3
2014-Jul-26 04:00N 24°04' E 123°36'0 0.5 29.2
2014-Jul-26 03:00N 24°03' E 123°36'0 0.2 28.6
2014-Jul-26 01:00N 24°03' E 123°36'2 1.7 27.6
2014-Jul-26 00:00N 24°02' E 123°35'0 0.0 27.4
2014-Jul-25 22:00N 24°02' E 123°35'1 0.7 27.3
2014-Jul-25 21:00N 24°01' E 123°34'2 1.1 27.3
2014-Jul-25 19:00N 23°60' E 123°32'4 3.8 27.3
2014-Jul-25 18:00N 23°57' E 123°30'1 0.1 27.3
2014-Jul-25 13:00N 23°56' E 123°29'0 0.0 27.4
2014-Jul-25 12:00N 23°56' E 123°29'5 1.2 27.4
2014-Jul-25 08:00N 23°52' E 123°26'4 1.8 27.4
2014-Jul-25 06:00N 23°49' E 123°25'3 1.4 27.3
2014-Jul-25 04:00N 23°46' E 123°24'2 1.9 27.2
2014-Jul-25 03:00N 23°44' E 123°24'6 1.1 27.0
2014-Jul-24 21:00N 23°38' E 123°24'2 1.2 26.8
2014-Jul-24 19:00N 23°36' E 123°26'0 0.0 26.8
2014-Jul-24 18:00N 23°36' E 123°26'2 1.9 26.8
2014-Jul-24 17:00N 23°34' E 123°27'0 0.0 26.8
2014-Jul-24 16:00N 23°34' E 123°27'2 0.8 26.8
2014-Jul-24 13:00N 23°32' E 123°27'1 0.8 26.7
2014-Jul-24 12:00N 23°31' E 123°27'3 0.9 26.7
2014-Jul-24 09:00N 23°29' E 123°26'2 2.3 26.7
2014-Jul-24 08:00N 23°27' E 123°26'1 1.4 26.6
2014-Jul-24 07:00N 23°25' E 123°25'2 2.3 26.5
2014-Jul-24 06:00N 23°23' E 123°26'5 2.3 26.4
2014-Jul-24 04:00N 23°19' E 123°26'6 0.9 26.3
2014-Jul-23 21:00N 23°13' E 123°26'1 0.6 26.0
2014-Jul-23 20:00N 23°12' E 123°26'2 1.6 26.0
2014-Jul-23 19:00N 23°10' E 123°26'3 2.6 26.0
2014-Jul-23 18:00N 23°08' E 123°27'0 0.1 26.0
2014-Jul-23 17:00N 23°08' E 123°27'0 0.0 26.0
2014-Jul-23 16:00N 23°08' E 123°27'5 2.7 26.0
2014-Jul-23 14:00N 23°03' E 123°29'3 3.2 26.1
2014-Jul-23 13:00N 23°01' E 123°32'0 0.0 26.1
2014-Jul-23 12:00N 23°01' E 123°32'5 1.5 26.1
2014-Jul-23 09:00N 22°59' E 123°36'4 2.1 26.1
2014-Jul-23 07:00N 22°59' E 123°41'0 0.0 26.2
2014-Jul-23 06:00N 22°59' E 123°41'4 1.1 26.1
2014-Jul-23 02:00N 22°60' E 123°45'0 0.1 26.1
2014-Jul-22 22:00N 22°60' E 123°46'0 0.2 26.1
2014-Jul-22 21:00N 23°00' E 123°46'1 0.5 26.1
2014-Jul-22 20:00N 22°60' E 123°46'2 1.8 26.1
2014-Jul-22 19:00N 22°58' E 123°46'0 0.0 26.1
2014-Jul-22 17:00N 22°58' E 123°46'7 1.6 26.1
2014-Jul-22 13:00N 22°51' E 123°46'8 1.9 26.1
2014-Jul-22 09:00N 22°45' E 123°50'1 1.0 26.3
2014-Jul-22 08:00N 22°45' E 123°50'7 6.6 26.4
2014-Jul-22 07:00N 22°41' E 123°56'0 0.0 26.5
2014-Jul-22 05:00N 22°41' E 123°56'14 1.8 26.8
2014-Jul-21 21:00N 22°37' E 124°10'   27.7

Dump ship's entire track history